sensor_id;sensor_type;location;lat;lon;timestamp;temperature;humidity
24518;DHT22;12678;51.336;12.406;2023-11-18T00:01:44;6.40;99.90
24518;DHT22;12678;51.336;12.406;2023-11-18T00:04:10;6.40;99.90
24518;DHT22;12678;51.336;12.406;2023-11-18T00:06:44;6.40;99.90
24518;DHT22;12678;51.336;12.406;2023-11-18T00:09:13;6.40;99.90
24518;DHT22;12678;51.336;12.406;2023-11-18T00:11:40;6.40;99.90
24518;DHT22;12678;51.336;12.406;2023-11-18T00:14:06;6.40;99.90
24518;DHT22;12678;51.336;12.406;2023-11-18T00:16:32;6.40;99.90
24518;DHT22;12678;51.336;12.406;2023-11-18T00:19:00;6.40;99.90
24518;DHT22;12678;51.336;12.406;2023-11-18T00:21:27;6.50;99.90
24518;DHT22;12678;51.336;12.406;2023-11-18T00:23:53;6.50;99.90
24518;DHT22;12678;51.336;12.406;2023-11-18T00:26:19;6.50;99.90
24518;DHT22;12678;51.336;12.406;2023-11-18T00:28:45;6.40;99.90
24518;DHT22;12678;51.336;12.406;2023-11-18T00:31:10;6.40;99.90
24518;DHT22;12678;51.336;12.406;2023-11-18T00:33:36;6.50;99.90
24518;DHT22;12678;51.336;12.406;2023-11-18T00:36:02;6.50;99.90
24518;DHT22;12678;51.336;12.406;2023-11-18T00:38:28;6.50;99.90
24518;DHT22;12678;51.336;12.406;2023-11-18T00:40:53;6.40;99.90
24518;DHT22;12678;51.336;12.406;2023-11-18T00:43:19;6.40;99.90
24518;DHT22;12678;51.336;12.406;2023-11-18T00:45:44;6.40;99.90
24518;DHT22;12678;51.336;12.406;2023-11-18T00:48:10;6.30;99.90
24518;DHT22;12678;51.336;12.406;2023-11-18T00:50:36;6.30;99.90
24518;DHT22;12678;51.336;12.406;2023-11-18T00:53:01;6.30;99.90
24518;DHT22;12678;51.336;12.406;2023-11-18T00:55:27;6.30;99.90
24518;DHT22;12678;51.336;12.406;2023-11-18T00:57:52;6.30;99.90
24518;DHT22;12678;51.336;12.406;2023-11-18T01:00:18;6.20;99.90
24518;DHT22;12678;51.336;12.406;2023-11-18T01:02:48;6.30;99.90
24518;DHT22;12678;51.336;12.406;2023-11-18T01:05:15;6.30;99.90
24518;DHT22;12678;51.336;12.406;2023-11-18T01:07:41;6.20;99.90
24518;DHT22;12678;51.336;12.406;2023-11-18T01:10:08;6.20;99.90
24518;DHT22;12678;51.336;12.406;2023-11-18T01:12:35;6.20;99.90
24518;DHT22;12678;51.336;12.406;2023-11-18T01:15:01;6.30;99.90
24518;DHT22;12678;51.336;12.406;2023-11-18T01:17:28;6.20;99.90
24518;DHT22;12678;51.336;12.406;2023-11-18T01:19:54;6.20;99.90
24518;DHT22;12678;51.336;12.406;2023-11-18T01:22:20;6.10;99.90
24518;DHT22;12678;51.336;12.406;2023-11-18T01:24:46;6.10;99.90
24518;DHT22;12678;51.336;12.406;2023-11-18T01:27:12;6.00;99.90
24518;DHT22;12678;51.336;12.406;2023-11-18T01:29:38;5.90;99.90
24518;DHT22;12678;51.336;12.406;2023-11-18T01:32:05;5.80;99.90
24518;DHT22;12678;51.336;12.406;2023-11-18T01:34:35;5.80;99.90
24518;DHT22;12678;51.336;12.406;2023-11-18T01:37:01;5.60;99.90
24518;DHT22;12678;51.336;12.406;2023-11-18T01:39:27;5.60;99.90
24518;DHT22;12678;51.336;12.406;2023-11-18T01:41:53;5.60;99.90
24518;DHT22;12678;51.336;12.406;2023-11-18T01:44:20;5.50;99.90
24518;DHT22;12678;51.336;12.406;2023-11-18T01:46:49;5.50;99.90
24518;DHT22;12678;51.336;12.406;2023-11-18T01:49:15;5.40;99.90
24518;DHT22;12678;51.336;12.406;2023-11-18T01:51:44;5.40;99.90
24518;DHT22;12678;51.336;12.406;2023-11-18T01:54:12;5.30;99.90
24518;DHT22;12678;51.336;12.406;2023-11-18T01:56:43;5.30;99.90
24518;DHT22;12678;51.336;12.406;2023-11-18T01:59:09;5.30;99.90
24518;DHT22;12678;51.336;12.406;2023-11-18T02:01:35;5.30;99.90
24518;DHT22;12678;51.336;12.406;2023-11-18T02:04:02;5.20;99.90
24518;DHT22;12678;51.336;12.406;2023-11-18T02:06:28;5.20;99.90
24518;DHT22;12678;51.336;12.406;2023-11-18T02:08:54;5.10;99.90
24518;DHT22;12678;51.336;12.406;2023-11-18T02:11:34;5.10;99.90
24518;DHT22;12678;51.336;12.406;2023-11-18T02:14:07;5.10;99.90
24518;DHT22;12678;51.336;12.406;2023-11-18T02:16:37;5.00;99.90
24518;DHT22;12678;51.336;12.406;2023-11-18T02:19:07;4.90;99.90
24518;DHT22;12678;51.336;12.406;2023-11-18T02:21:35;4.90;99.90
24518;DHT22;12678;51.336;12.406;2023-11-18T02:24:03;4.80;99.90
24518;DHT22;12678;51.336;12.406;2023-11-18T02:26:29;4.90;99.90
24518;DHT22;12678;51.336;12.406;2023-11-18T02:28:55;4.80;99.90
24518;DHT22;12678;51.336;12.406;2023-11-18T02:31:27;4.90;99.90
24518;DHT22;12678;51.336;12.406;2023-11-18T02:34:12;4.80;99.90
24518;DHT22;12678;51.336;12.406;2023-11-18T02:36:44;4.80;99.90
24518;DHT22;12678;51.336;12.406;2023-11-18T02:39:14;4.80;99.90
24518;DHT22;12678;51.336;12.406;2023-11-18T02:41:46;4.80;99.90
24518;DHT22;12678;51.336;12.406;2023-11-18T02:44:13;4.80;99.90
24518;DHT22;12678;51.336;12.406;2023-11-18T02:46:43;4.80;99.90
24518;DHT22;12678;51.336;12.406;2023-11-18T02:49:09;4.70;99.90
24518;DHT22;12678;51.336;12.406;2023-11-18T02:51:35;4.70;99.90
24518;DHT22;12678;51.336;12.406;2023-11-18T02:54:05;4.70;99.90
24518;DHT22;12678;51.336;12.406;2023-11-18T02:56:36;4.70;99.90
24518;DHT22;12678;51.336;12.406;2023-11-18T02:59:02;4.70;99.90
24518;DHT22;12678;51.336;12.406;2023-11-18T03:01:33;4.70;99.90
24518;DHT22;12678;51.336;12.406;2023-11-18T03:04:02;4.70;99.90
24518;DHT22;12678;51.336;12.406;2023-11-18T03:06:28;4.70;99.90
24518;DHT22;12678;51.336;12.406;2023-11-18T03:08:53;4.70;99.90
24518;DHT22;12678;51.336;12.406;2023-11-18T03:11:19;4.80;99.90
24518;DHT22;12678;51.336;12.406;2023-11-18T03:13:45;4.90;99.90
24518;DHT22;12678;51.336;12.406;2023-11-18T03:16:14;4.80;99.90
24518;DHT22;12678;51.336;12.406;2023-11-18T03:18:40;4.80;99.90
24518;DHT22;12678;51.336;12.406;2023-11-18T03:21:15;4.90;99.90
24518;DHT22;12678;51.336;12.406;2023-11-18T03:23:41;5.00;99.90
24518;DHT22;12678;51.336;12.406;2023-11-18T03:26:10;5.00;99.90
24518;DHT22;12678;51.336;12.406;2023-11-18T03:28:36;5.10;99.90
24518;DHT22;12678;51.336;12.406;2023-11-18T03:31:04;5.10;99.90
24518;DHT22;12678;51.336;12.406;2023-11-18T03:33:30;5.10;99.90
24518;DHT22;12678;51.336;12.406;2023-11-18T03:35:55;5.20;99.90
24518;DHT22;12678;51.336;12.406;2023-11-18T03:38:21;5.20;99.90
24518;DHT22;12678;51.336;12.406;2023-11-18T03:40:47;5.20;99.90
24518;DHT22;12678;51.336;12.406;2023-11-18T03:43:13;5.30;99.90
24518;DHT22;12678;51.336;12.406;2023-11-18T03:45:39;5.30;99.90
24518;DHT22;12678;51.336;12.406;2023-11-18T03:48:05;5.30;99.90
24518;DHT22;12678;51.336;12.406;2023-11-18T03:50:32;5.40;99.90
24518;DHT22;12678;51.336;12.406;2023-11-18T03:52:57;5.40;99.90
24518;DHT22;12678;51.336;12.406;2023-11-18T03:55:24;5.60;99.90
24518;DHT22;12678;51.336;12.406;2023-11-18T03:57:51;5.80;99.90
24518;DHT22;12678;51.336;12.406;2023-11-18T04:00:17;5.70;99.90
24518;DHT22;12678;51.336;12.406;2023-11-18T04:02:43;5.70;99.90
24518;DHT22;12678;51.336;12.406;2023-11-18T04:05:11;5.70;99.90
24518;DHT22;12678;51.336;12.406;2023-11-18T04:07:37;5.60;99.90
24518;DHT22;12678;51.336;12.406;2023-11-18T04:10:03;5.60;99.90
24518;DHT22;12678;51.336;12.406;2023-11-18T04:12:32;5.50;99.90
24518;DHT22;12678;51.336;12.406;2023-11-18T04:14:57;5.60;99.90
24518;DHT22;12678;51.336;12.406;2023-11-18T04:17:23;5.60;99.90
24518;DHT22;12678;51.336;12.406;2023-11-18T04:19:48;5.60;99.90
24518;DHT22;12678;51.336;12.406;2023-11-18T04:22:14;5.60;99.90
24518;DHT22;12678;51.336;12.406;2023-11-18T04:24:39;5.60;99.90
24518;DHT22;12678;51.336;12.406;2023-11-18T04:27:05;5.60;99.90
24518;DHT22;12678;51.336;12.406;2023-11-18T04:29:31;5.70;99.90
24518;DHT22;12678;51.336;12.406;2023-11-18T04:31:56;5.70;99.90
24518;DHT22;12678;51.336;12.406;2023-11-18T04:34:22;5.80;99.90
24518;DHT22;12678;51.336;12.406;2023-11-18T04:36:48;5.90;99.90
24518;DHT22;12678;51.336;12.406;2023-11-18T04:39:14;5.80;99.90
24518;DHT22;12678;51.336;12.406;2023-11-18T04:41:41;5.80;99.90
24518;DHT22;12678;51.336;12.406;2023-11-18T04:44:06;5.90;99.90
24518;DHT22;12678;51.336;12.406;2023-11-18T04:46:32;5.90;99.90
24518;DHT22;12678;51.336;12.406;2023-11-18T04:48:57;5.90;99.90
24518;DHT22;12678;51.336;12.406;2023-11-18T04:51:24;5.90;99.90
24518;DHT22;12678;51.336;12.406;2023-11-18T04:53:49;5.90;99.90
24518;DHT22;12678;51.336;12.406;2023-11-18T04:56:15;6.00;99.90
24518;DHT22;12678;51.336;12.406;2023-11-18T04:58:43;6.00;99.90
24518;DHT22;12678;51.336;12.406;2023-11-18T05:01:12;6.10;99.90
24518;DHT22;12678;51.336;12.406;2023-11-18T05:03:38;6.20;99.90
24518;DHT22;12678;51.336;12.406;2023-11-18T05:06:04;6.30;99.90
24518;DHT22;12678;51.336;12.406;2023-11-18T05:08:29;6.20;99.90
24518;DHT22;12678;51.336;12.406;2023-11-18T05:10:56;6.20;99.90
24518;DHT22;12678;51.336;12.406;2023-11-18T05:13:23;6.00;99.90
24518;DHT22;12678;51.336;12.406;2023-11-18T05:15:48;6.10;99.90
24518;DHT22;12678;51.336;12.406;2023-11-18T05:18:15;6.00;99.90
24518;DHT22;12678;51.336;12.406;2023-11-18T05:20:41;6.10;99.90
24518;DHT22;12678;51.336;12.406;2023-11-18T05:23:07;6.10;99.90
24518;DHT22;12678;51.336;12.406;2023-11-18T05:25:44;6.10;99.90
24518;DHT22;12678;51.336;12.406;2023-11-18T05:28:10;6.10;99.90
24518;DHT22;12678;51.336;12.406;2023-11-18T05:30:36;6.10;99.90
24518;DHT22;12678;51.336;12.406;2023-11-18T05:33:05;6.10;99.90
24518;DHT22;12678;51.336;12.406;2023-11-18T05:35:32;6.10;99.90
24518;DHT22;12678;51.336;12.406;2023-11-18T05:37:58;6.10;99.90
24518;DHT22;12678;51.336;12.406;2023-11-18T05:40:24;6.10;99.90
24518;DHT22;12678;51.336;12.406;2023-11-18T05:42:51;6.00;99.90
24518;DHT22;12678;51.336;12.406;2023-11-18T05:45:17;6.00;99.90
24518;DHT22;12678;51.336;12.406;2023-11-18T05:47:54;6.00;99.90
24518;DHT22;12678;51.336;12.406;2023-11-18T05:50:21;6.00;99.90
24518;DHT22;12678;51.336;12.406;2023-11-18T05:52:46;6.00;99.90
24518;DHT22;12678;51.336;12.406;2023-11-18T05:55:12;5.90;99.90
24518;DHT22;12678;51.336;12.406;2023-11-18T05:57:37;5.90;99.90
24518;DHT22;12678;51.336;12.406;2023-11-18T06:00:03;5.90;99.90
24518;DHT22;12678;51.336;12.406;2023-11-18T06:02:31;5.90;99.90
24518;DHT22;12678;51.336;12.406;2023-11-18T06:04:56;5.90;99.90
24518;DHT22;12678;51.336;12.406;2023-11-18T06:07:22;5.90;99.90
24518;DHT22;12678;51.336;12.406;2023-11-18T06:09:48;5.90;99.90
24518;DHT22;12678;51.336;12.406;2023-11-18T06:12:13;5.90;99.90
24518;DHT22;12678;51.336;12.406;2023-11-18T06:14:43;5.90;99.90
24518;DHT22;12678;51.336;12.406;2023-11-18T06:17:10;5.90;99.90
24518;DHT22;12678;51.336;12.406;2023-11-18T06:19:38;6.00;99.90
24518;DHT22;12678;51.336;12.406;2023-11-18T06:22:04;6.00;99.90
24518;DHT22;12678;51.336;12.406;2023-11-18T06:24:31;6.00;99.90
24518;DHT22;12678;51.336;12.406;2023-11-18T06:26:56;5.90;99.90
24518;DHT22;12678;51.336;12.406;2023-11-18T06:29:23;5.90;99.90
24518;DHT22;12678;51.336;12.406;2023-11-18T06:31:49;5.90;99.90
24518;DHT22;12678;51.336;12.406;2023-11-18T06:34:14;5.90;99.90
24518;DHT22;12678;51.336;12.406;2023-11-18T06:36:40;5.90;99.90
24518;DHT22;12678;51.336;12.406;2023-11-18T06:39:05;5.90;99.90
24518;DHT22;12678;51.336;12.406;2023-11-18T06:41:32;6.00;99.90
24518;DHT22;12678;51.336;12.406;2023-11-18T06:44:03;6.00;99.90
24518;DHT22;12678;51.336;12.406;2023-11-18T06:46:37;6.00;99.90
24518;DHT22;12678;51.336;12.406;2023-11-18T06:49:05;6.00;99.90
24518;DHT22;12678;51.336;12.406;2023-11-18T06:51:33;6.00;99.90
24518;DHT22;12678;51.336;12.406;2023-11-18T06:54:01;6.10;99.90
24518;DHT22;12678;51.336;12.406;2023-11-18T06:56:34;6.00;99.90
24518;DHT22;12678;51.336;12.406;2023-11-18T06:59:01;6.10;99.90
24518;DHT22;12678;51.336;12.406;2023-11-18T07:01:27;6.00;99.90
24518;DHT22;12678;51.336;12.406;2023-11-18T07:03:55;6.00;99.90
24518;DHT22;12678;51.336;12.406;2023-11-18T07:06:21;6.00;99.90
24518;DHT22;12678;51.336;12.406;2023-11-18T07:08:53;6.10;99.90
24518;DHT22;12678;51.336;12.406;2023-11-18T07:11:19;6.10;99.90
24518;DHT22;12678;51.336;12.406;2023-11-18T07:13:48;6.10;99.90
24518;DHT22;12678;51.336;12.406;2023-11-18T07:16:15;6.10;99.90
24518;DHT22;12678;51.336;12.406;2023-11-18T07:18:41;6.10;99.90
24518;DHT22;12678;51.336;12.406;2023-11-18T07:21:08;6.10;99.90
24518;DHT22;12678;51.336;12.406;2023-11-18T07:23:35;6.10;99.90
24518;DHT22;12678;51.336;12.406;2023-11-18T07:26:01;6.10;99.90
24518;DHT22;12678;51.336;12.406;2023-11-18T07:28:27;6.20;99.90
24518;DHT22;12678;51.336;12.406;2023-11-18T07:30:53;6.20;99.90
24518;DHT22;12678;51.336;12.406;2023-11-18T07:33:19;6.20;99.90
24518;DHT22;12678;51.336;12.406;2023-11-18T07:35:47;6.20;99.90
24518;DHT22;12678;51.336;12.406;2023-11-18T07:38:13;6.20;99.90
24518;DHT22;12678;51.336;12.406;2023-11-18T07:40:39;6.20;99.90
24518;DHT22;12678;51.336;12.406;2023-11-18T07:43:11;6.10;99.90
24518;DHT22;12678;51.336;12.406;2023-11-18T07:45:37;6.10;99.90
24518;DHT22;12678;51.336;12.406;2023-11-18T07:48:10;6.20;99.90
24518;DHT22;12678;51.336;12.406;2023-11-18T07:50:38;6.10;99.90
24518;DHT22;12678;51.336;12.406;2023-11-18T07:53:07;6.20;99.90
24518;DHT22;12678;51.336;12.406;2023-11-18T07:55:33;6.20;99.90
24518;DHT22;12678;51.336;12.406;2023-11-18T07:58:00;6.20;99.90
24518;DHT22;12678;51.336;12.406;2023-11-18T08:00:27;6.20;99.90
24518;DHT22;12678;51.336;12.406;2023-11-18T08:02:56;6.30;99.90
24518;DHT22;12678;51.336;12.406;2023-11-18T08:05:22;6.40;99.90
24518;DHT22;12678;51.336;12.406;2023-11-18T08:07:48;6.40;99.90
24518;DHT22;12678;51.336;12.406;2023-11-18T08:10:14;6.50;99.90
24518;DHT22;12678;51.336;12.406;2023-11-18T08:12:44;6.50;99.90
24518;DHT22;12678;51.336;12.406;2023-11-18T08:15:10;6.60;99.90
24518;DHT22;12678;51.336;12.406;2023-11-18T08:17:36;6.60;99.90
24518;DHT22;12678;51.336;12.406;2023-11-18T08:20:02;6.60;99.90
24518;DHT22;12678;51.336;12.406;2023-11-18T08:22:33;6.60;99.90
24518;DHT22;12678;51.336;12.406;2023-11-18T08:24:59;6.70;99.90
24518;DHT22;12678;51.336;12.406;2023-11-18T08:27:25;6.70;99.90
24518;DHT22;12678;51.336;12.406;2023-11-18T08:29:50;6.70;99.90
24518;DHT22;12678;51.336;12.406;2023-11-18T08:32:16;6.70;99.90
24518;DHT22;12678;51.336;12.406;2023-11-18T08:34:42;6.70;99.90
24518;DHT22;12678;51.336;12.406;2023-11-18T08:37:08;6.70;99.90
24518;DHT22;12678;51.336;12.406;2023-11-18T08:39:34;6.70;99.90
24518;DHT22;12678;51.336;12.406;2023-11-18T08:42:00;6.80;99.90
24518;DHT22;12678;51.336;12.406;2023-11-18T08:44:27;6.80;99.90
24518;DHT22;12678;51.336;12.406;2023-11-18T08:46:54;6.90;99.90
24518;DHT22;12678;51.336;12.406;2023-11-18T08:49:20;6.90;99.90
24518;DHT22;12678;51.336;12.406;2023-11-18T08:51:48;6.90;99.90
24518;DHT22;12678;51.336;12.406;2023-11-18T08:54:18;6.90;99.90
24518;DHT22;12678;51.336;12.406;2023-11-18T08:56:51;6.90;99.90
24518;DHT22;12678;51.336;12.406;2023-11-18T08:59:19;6.90;99.90
24518;DHT22;12678;51.336;12.406;2023-11-18T09:01:56;6.90;99.90
24518;DHT22;12678;51.336;12.406;2023-11-18T09:04:25;6.90;99.90
24518;DHT22;12678;51.336;12.406;2023-11-18T09:06:51;7.10;99.90
24518;DHT22;12678;51.336;12.406;2023-11-18T09:09:22;7.20;99.90
24518;DHT22;12678;51.336;12.406;2023-11-18T09:11:56;7.20;99.90
24518;DHT22;12678;51.336;12.406;2023-11-18T09:14:23;7.20;99.90
24518;DHT22;12678;51.336;12.406;2023-11-18T09:16:50;7.30;99.90
24518;DHT22;12678;51.336;12.406;2023-11-18T09:19:16;7.30;99.90
24518;DHT22;12678;51.336;12.406;2023-11-18T09:21:42;7.30;99.90
24518;DHT22;12678;51.336;12.406;2023-11-18T09:24:10;7.30;99.90
24518;DHT22;12678;51.336;12.406;2023-11-18T09:26:38;7.40;99.90
24518;DHT22;12678;51.336;12.406;2023-11-18T09:29:05;7.50;99.90
24518;DHT22;12678;51.336;12.406;2023-11-18T09:31:36;7.60;99.90
24518;DHT22;12678;51.336;12.406;2023-11-18T09:34:03;7.60;99.90
24518;DHT22;12678;51.336;12.406;2023-11-18T09:36:32;7.70;99.90
24518;DHT22;12678;51.336;12.406;2023-11-18T09:38:59;7.80;99.90
24518;DHT22;12678;51.336;12.406;2023-11-18T09:41:25;7.80;99.90
24518;DHT22;12678;51.336;12.406;2023-11-18T09:43:52;7.80;99.90
24518;DHT22;12678;51.336;12.406;2023-11-18T09:46:28;7.80;99.90
24518;DHT22;12678;51.336;12.406;2023-11-18T09:49:28;7.80;99.90
24518;DHT22;12678;51.336;12.406;2023-11-18T09:51:59;7.90;99.90
24518;DHT22;12678;51.336;12.406;2023-11-18T09:54:56;8.00;99.90
24518;DHT22;12678;51.336;12.406;2023-11-18T09:57:37;8.00;99.90
24518;DHT22;12678;51.336;12.406;2023-11-18T10:00:11;8.00;99.90
24518;DHT22;12678;51.336;12.406;2023-11-18T10:02:49;7.90;99.90
24518;DHT22;12678;51.336;12.406;2023-11-18T10:05:16;7.80;99.90
24518;DHT22;12678;51.336;12.406;2023-11-18T10:07:46;7.80;99.90
24518;DHT22;12678;51.336;12.406;2023-11-18T10:10:13;7.90;99.90
24518;DHT22;12678;51.336;12.406;2023-11-18T10:12:46;8.00;99.90
24518;DHT22;12678;51.336;12.406;2023-11-18T10:15:21;8.00;99.90
24518;DHT22;12678;51.336;12.406;2023-11-18T10:17:51;8.10;99.90
24518;DHT22;12678;51.336;12.406;2023-11-18T10:23:10;8.00;99.90
24518;DHT22;12678;51.336;12.406;2023-11-18T10:25:49;8.00;99.90
24518;DHT22;12678;51.336;12.406;2023-11-18T10:30:50;7.90;99.90
24518;DHT22;12678;51.336;12.406;2023-11-18T10:33:17;7.80;99.90
24518;DHT22;12678;51.336;12.406;2023-11-18T10:35:50;7.70;99.90
24518;DHT22;12678;51.336;12.406;2023-11-18T10:38:21;7.70;99.90
24518;DHT22;12678;51.336;12.406;2023-11-18T10:40:53;7.80;99.90
24518;DHT22;12678;51.336;12.406;2023-11-18T10:43:21;7.80;99.90
24518;DHT22;12678;51.336;12.406;2023-11-18T10:45:50;7.90;99.90
24518;DHT22;12678;51.336;12.406;2023-11-18T10:48:16;7.90;99.90
24518;DHT22;12678;51.336;12.406;2023-11-18T10:50:49;7.90;99.90
24518;DHT22;12678;51.336;12.406;2023-11-18T10:53:16;7.80;99.90
24518;DHT22;12678;51.336;12.406;2023-11-18T10:55:43;7.80;99.90
24518;DHT22;12678;51.336;12.406;2023-11-18T10:58:09;7.70;99.90
24518;DHT22;12678;51.336;12.406;2023-11-18T11:00:52;7.70;99.90
24518;DHT22;12678;51.336;12.406;2023-11-18T11:03:21;7.70;99.90
24518;DHT22;12678;51.336;12.406;2023-11-18T11:05:52;7.70;99.90
24518;DHT22;12678;51.336;12.406;2023-11-18T11:08:20;7.70;99.90
24518;DHT22;12678;51.336;12.406;2023-11-18T11:10:46;7.70;99.90
24518;DHT22;12678;51.336;12.406;2023-11-18T11:13:14;7.70;99.90
24518;DHT22;12678;51.336;12.406;2023-11-18T11:15:44;7.80;99.90
24518;DHT22;12678;51.336;12.406;2023-11-18T11:18:12;7.80;99.90
24518;DHT22;12678;51.336;12.406;2023-11-18T11:21:02;7.90;99.90
24518;DHT22;12678;51.336;12.406;2023-11-18T11:27:22;8.00;99.90
24518;DHT22;12678;51.336;12.406;2023-11-18T11:30:10;8.00;99.90
24518;DHT22;12678;51.336;12.406;2023-11-18T11:33:32;8.20;99.90
24518;DHT22;12678;51.336;12.406;2023-11-18T11:35:53;8.10;99.90
24518;DHT22;12678;51.336;12.406;2023-11-18T11:38:23;8.20;99.90
24518;DHT22;12678;51.336;12.406;2023-11-18T11:40:49;8.10;99.90
24518;DHT22;12678;51.336;12.406;2023-11-18T11:43:18;8.20;99.90
24518;DHT22;12678;51.336;12.406;2023-11-18T11:45:49;8.20;99.90
24518;DHT22;12678;51.336;12.406;2023-11-18T11:48:17;8.20;99.90
24518;DHT22;12678;51.336;12.406;2023-11-18T11:53:44;8.10;99.90
24518;DHT22;12678;51.336;12.406;2023-11-18T11:56:11;8.10;99.90
24518;DHT22;12678;51.336;12.406;2023-11-18T11:58:46;8.00;99.90
24518;DHT22;12678;51.336;12.406;2023-11-18T12:01:28;8.00;99.90
24518;DHT22;12678;51.336;12.406;2023-11-18T12:04:02;8.00;99.90
24518;DHT22;12678;51.336;12.406;2023-11-18T12:06:38;8.00;99.90
24518;DHT22;12678;51.336;12.406;2023-11-18T12:09:09;8.00;99.90
24518;DHT22;12678;51.336;12.406;2023-11-18T12:11:37;8.10;99.90
24518;DHT22;12678;51.336;12.406;2023-11-18T12:14:08;8.20;99.90
24518;DHT22;12678;51.336;12.406;2023-11-18T12:17:07;8.10;99.90
24518;DHT22;12678;51.336;12.406;2023-11-18T12:19:40;8.10;99.90
24518;DHT22;12678;51.336;12.406;2023-11-18T12:22:23;8.20;99.90
24518;DHT22;12678;51.336;12.406;2023-11-18T12:27:43;8.30;99.90
24518;DHT22;12678;51.336;12.406;2023-11-18T12:33:06;8.30;99.90
24518;DHT22;12678;51.336;12.406;2023-11-18T12:41:34;8.40;99.90
24518;DHT22;12678;51.336;12.406;2023-11-18T12:46:54;8.60;99.90
24518;DHT22;12678;51.336;12.406;2023-11-18T12:49:24;8.60;99.90
24518;DHT22;12678;51.336;12.406;2023-11-18T12:51:54;8.50;99.90
24518;DHT22;12678;51.336;12.406;2023-11-18T12:54:22;8.40;99.90
24518;DHT22;12678;51.336;12.406;2023-11-18T12:56:50;8.30;99.90
24518;DHT22;12678;51.336;12.406;2023-11-18T12:59:19;8.20;99.90
24518;DHT22;12678;51.336;12.406;2023-11-18T13:01:53;8.20;99.90
24518;DHT22;12678;51.336;12.406;2023-11-18T13:04:22;8.20;99.90
24518;DHT22;12678;51.336;12.406;2023-11-18T13:06:50;8.20;99.90
24518;DHT22;12678;51.336;12.406;2023-11-18T13:09:17;8.20;99.90
24518;DHT22;12678;51.336;12.406;2023-11-18T13:11:54;8.20;99.90
24518;DHT22;12678;51.336;12.406;2023-11-18T13:14:39;8.20;99.90
24518;DHT22;12678;51.336;12.406;2023-11-18T13:17:12;8.30;99.90
24518;DHT22;12678;51.336;12.406;2023-11-18T13:19:42;8.20;99.90
24518;DHT22;12678;51.336;12.406;2023-11-18T13:22:10;8.20;99.90
24518;DHT22;12678;51.336;12.406;2023-11-18T13:24:40;8.20;99.90
24518;DHT22;12678;51.336;12.406;2023-11-18T13:27:07;8.30;99.90
24518;DHT22;12678;51.336;12.406;2023-11-18T13:29:35;8.30;99.90
24518;DHT22;12678;51.336;12.406;2023-11-18T13:32:01;8.30;99.90
24518;DHT22;12678;51.336;12.406;2023-11-18T13:34:30;8.30;99.90
24518;DHT22;12678;51.336;12.406;2023-11-18T13:36:58;8.40;99.90
24518;DHT22;12678;51.336;12.406;2023-11-18T13:39:24;8.40;99.90
24518;DHT22;12678;51.336;12.406;2023-11-18T13:41:53;8.30;99.90
24518;DHT22;12678;51.336;12.406;2023-11-18T13:44:51;8.40;99.90
24518;DHT22;12678;51.336;12.406;2023-11-18T13:47:18;8.30;99.90
24518;DHT22;12678;51.336;12.406;2023-11-18T13:49:44;8.30;99.90
24518;DHT22;12678;51.336;12.406;2023-11-18T13:52:13;8.30;99.90
24518;DHT22;12678;51.336;12.406;2023-11-18T13:54:42;8.30;99.90
24518;DHT22;12678;51.336;12.406;2023-11-18T13:57:10;8.30;99.90
24518;DHT22;12678;51.336;12.406;2023-11-18T13:59:37;8.40;99.90
24518;DHT22;12678;51.336;12.406;2023-11-18T14:02:04;8.40;99.90
24518;DHT22;12678;51.336;12.406;2023-11-18T14:04:32;8.40;99.90
24518;DHT22;12678;51.336;12.406;2023-11-18T14:07:00;8.40;99.90
24518;DHT22;12678;51.336;12.406;2023-11-18T14:09:37;8.40;99.90
24518;DHT22;12678;51.336;12.406;2023-11-18T14:12:08;8.40;99.90
24518;DHT22;12678;51.336;12.406;2023-11-18T14:14:34;8.40;99.90
24518;DHT22;12678;51.336;12.406;2023-11-18T14:16:59;8.30;99.90
24518;DHT22;12678;51.336;12.406;2023-11-18T14:19:25;8.30;99.90
24518;DHT22;12678;51.336;12.406;2023-11-18T14:21:51;8.30;99.90
24518;DHT22;12678;51.336;12.406;2023-11-18T14:24:17;8.30;99.90
24518;DHT22;12678;51.336;12.406;2023-11-18T14:26:43;8.30;99.90
24518;DHT22;12678;51.336;12.406;2023-11-18T14:29:09;8.30;99.90
24518;DHT22;12678;51.336;12.406;2023-11-18T14:31:37;8.30;99.90
24518;DHT22;12678;51.336;12.406;2023-11-18T14:34:03;8.20;99.90
24518;DHT22;12678;51.336;12.406;2023-11-18T14:36:29;8.20;99.90
24518;DHT22;12678;51.336;12.406;2023-11-18T14:38:55;8.20;99.90
24518;DHT22;12678;51.336;12.406;2023-11-18T14:41:21;8.10;99.90
24518;DHT22;12678;51.336;12.406;2023-11-18T14:43:50;8.10;99.90
24518;DHT22;12678;51.336;12.406;2023-11-18T14:46:16;8.20;99.90
24518;DHT22;12678;51.336;12.406;2023-11-18T14:48:42;8.10;99.90
24518;DHT22;12678;51.336;12.406;2023-11-18T14:51:10;8.00;99.90
24518;DHT22;12678;51.336;12.406;2023-11-18T14:53:37;8.00;99.90
24518;DHT22;12678;51.336;12.406;2023-11-18T14:56:03;8.00;99.90
24518;DHT22;12678;51.336;12.406;2023-11-18T14:58:31;7.90;99.90
24518;DHT22;12678;51.336;12.406;2023-11-18T15:00:58;8.00;99.90
24518;DHT22;12678;51.336;12.406;2023-11-18T15:03:25;8.00;99.90
24518;DHT22;12678;51.336;12.406;2023-11-18T15:05:50;7.90;99.90
24518;DHT22;12678;51.336;12.406;2023-11-18T15:08:16;7.80;99.90
24518;DHT22;12678;51.336;12.406;2023-11-18T15:10:42;7.80;99.90
24518;DHT22;12678;51.336;12.406;2023-11-18T15:13:08;7.70;99.90
24518;DHT22;12678;51.336;12.406;2023-11-18T15:15:44;7.70;99.90
24518;DHT22;12678;51.336;12.406;2023-11-18T15:18:14;7.60;99.90
24518;DHT22;12678;51.336;12.406;2023-11-18T15:20:43;7.60;99.90
24518;DHT22;12678;51.336;12.406;2023-11-18T15:23:10;7.60;99.90
24518;DHT22;12678;51.336;12.406;2023-11-18T15:25:36;7.60;99.90
24518;DHT22;12678;51.336;12.406;2023-11-18T15:28:02;7.60;99.90
24518;DHT22;12678;51.336;12.406;2023-11-18T15:30:29;7.50;99.90
24518;DHT22;12678;51.336;12.406;2023-11-18T15:32:54;7.50;99.90
24518;DHT22;12678;51.336;12.406;2023-11-18T15:35:21;7.50;99.90
24518;DHT22;12678;51.336;12.406;2023-11-18T15:37:48;7.50;99.90
24518;DHT22;12678;51.336;12.406;2023-11-18T15:40:14;7.40;99.90
24518;DHT22;12678;51.336;12.406;2023-11-18T15:42:45;7.40;99.90
24518;DHT22;12678;51.336;12.406;2023-11-18T15:47:43;7.30;99.90
24518;DHT22;12678;51.336;12.406;2023-11-18T15:50:11;7.30;99.90
24518;DHT22;12678;51.336;12.406;2023-11-18T15:52:45;7.20;99.90
24518;DHT22;12678;51.336;12.406;2023-11-18T15:55:11;7.20;99.90
24518;DHT22;12678;51.336;12.406;2023-11-18T15:57:46;7.30;99.90
24518;DHT22;12678;51.336;12.406;2023-11-18T16:00:19;7.20;99.90
24518;DHT22;12678;51.336;12.406;2023-11-18T16:02:50;7.10;99.90
24518;DHT22;12678;51.336;12.406;2023-11-18T16:05:23;7.10;99.90
24518;DHT22;12678;51.336;12.406;2023-11-18T16:07:51;7.00;99.90